Portada
METAR-TAF:

METAR-TAF

Aeroports :

Berbérati, República Centreafricana

latitud: 04-15N, longitud: 015-48E, altitud: 582 m

Observació

L'informe es va fer fa 8 hores i 58 minuts, a les 10:00 UTC
Vent 12 kt del Oest
Temperatura 23°C
Humitat 89%
Pressió 1015 hPa
Visibilitat 10 km o més
Cel cobert a una alçada de 1100 ft

METAR: FEFT 221000Z 28012KT 9999 OVC011 23/21 Q1015

Hora: 19:58 (18:58 UTC)


TAF: manca

Observacions i pronòstics meteorològics de més de 4000 aeroports (METAR i TAF).

Les estacions disponibles són els punts grocs i vermells al mapa.

Posi el ratolí al punt desitjat per veure el nom de l'estació.

Feu clic per veure les observacions i els pronòstics meteorològics.

Per canviar el mapa: feu clic els botons verds amb una creu de color negre per apropar; al botó verd amb un guió per allunyar la imatge; o en les fletxes verdes per a mapes adjacents.


METAR-TAF: